sensor_id;sensor_type;location;lat;lon;timestamp;pressure;altitude;pressure_sealevel;temperature;humidity
19890;BME280;10107;51.198;6.824;2023-05-08T00:00:25;-21703.50;;;14.73;100.00
19890;BME280;10107;51.198;6.824;2023-05-08T00:04:27;-21702.72;;;14.70;100.00
19890;BME280;10107;51.198;6.824;2023-05-08T00:08:30;-21701.41;;;14.65;100.00
19890;BME280;10107;51.198;6.824;2023-05-08T00:12:32;-21700.88;;;14.63;100.00
19890;BME280;10107;51.198;6.824;2023-05-08T00:16:33;-21700.47;;;14.61;100.00
19890;BME280;10107;51.198;6.824;2023-05-08T00:20:35;-21700.09;;;14.60;100.00
19890;BME280;10107;51.198;6.824;2023-05-08T00:24:38;-21699.56;;;14.58;100.00
19890;BME280;10107;51.198;6.824;2023-05-08T00:28:40;-21699.69;;;14.58;100.00
19890;BME280;10107;51.198;6.824;2023-05-08T00:32:41;-21698.13;;;14.52;100.00
19890;BME280;10107;51.198;6.824;2023-05-08T00:36:43;-21697.31;;;14.49;100.00
19890;BME280;10107;51.198;6.824;2023-05-08T00:40:46;-21695.34;;;14.41;100.00
19890;BME280;10107;51.198;6.824;2023-05-08T00:44:48;-21694.69;;;14.39;100.00
19890;BME280;10107;51.198;6.824;2023-05-08T00:48:50;-21694.16;;;14.37;100.00
19890;BME280;10107;51.198;6.824;2023-05-08T00:52:52;-21693.78;;;14.35;100.00
19890;BME280;10107;51.198;6.824;2023-05-08T00:56:56;-21692.31;;;14.30;100.00
19890;BME280;10107;51.198;6.824;2023-05-08T01:00:59;-21691.91;;;14.28;100.00
19890;BME280;10107;51.198;6.824;2023-05-08T01:05:01;-21691.00;;;14.24;100.00
19890;BME280;10107;51.198;6.824;2023-05-08T01:09:03;-21690.22;;;14.21;100.00
19890;BME280;10107;51.198;6.824;2023-05-08T01:13:12;-21690.09;;;14.21;100.00
19890;BME280;10107;51.198;6.824;2023-05-08T01:17:18;-21690.47;;;14.22;100.00
19890;BME280;10107;51.198;6.824;2023-05-08T01:21:28;-21689.94;;;14.20;100.00
19890;BME280;10107;51.198;6.824;2023-05-08T01:26:06;-21689.94;;;14.20;100.00
19890;BME280;10107;51.198;6.824;2023-05-08T01:30:54;-21689.69;;;14.19;100.00
19890;BME280;10107;51.198;6.824;2023-05-08T01:35:08;-21690.09;;;14.21;100.00
19890;BME280;10107;51.198;6.824;2023-05-08T01:39:16;-21690.09;;;14.21;100.00
19890;BME280;10107;51.198;6.824;2023-05-08T01:43:24;-21689.56;;;14.19;100.00
19890;BME280;10107;51.198;6.824;2023-05-08T01:47:29;-21689.03;;;14.17;100.00
19890;BME280;10107;51.198;6.824;2023-05-08T01:51:39;-21688.91;;;14.16;100.00
19890;BME280;10107;51.198;6.824;2023-05-08T01:55:44;-21688.75;;;14.16;100.00
19890;BME280;10107;51.198;6.824;2023-05-08T01:59:48;-21688.91;;;14.16;100.00
19890;BME280;10107;51.198;6.824;2023-05-08T02:03:53;-21689.16;;;14.17;100.00
19890;BME280;10107;51.198;6.824;2023-05-08T02:07:57;-21688.91;;;14.16;100.00
19890;BME280;10107;51.198;6.824;2023-05-08T02:12:00;-21688.75;;;14.16;100.00
19890;BME280;10107;51.198;6.824;2023-05-08T02:16:05;-21687.19;;;14.10;100.00
19890;BME280;10107;51.198;6.824;2023-05-08T02:20:08;-21685.88;;;14.04;100.00
19890;BME280;10107;51.198;6.824;2023-05-08T02:24:16;-21683.91;;;13.97;100.00
19890;BME280;10107;51.198;6.824;2023-05-08T02:28:19;-21683.38;;;13.95;100.00
19890;BME280;10107;51.198;6.824;2023-05-08T02:32:24;-21681.91;;;13.89;100.00
19890;BME280;10107;51.198;6.824;2023-05-08T02:36:28;-21680.47;;;13.83;100.00
19890;BME280;10107;51.198;6.824;2023-05-08T02:40:33;-21680.59;;;13.84;100.00
19890;BME280;10107;51.198;6.824;2023-05-08T02:44:34;-21681.13;;;13.86;100.00
19890;BME280;10107;51.198;6.824;2023-05-08T02:48:38;-21681.66;;;13.88;100.00
19890;BME280;10107;51.198;6.824;2023-05-08T02:52:43;-21682.44;;;13.91;100.00
19890;BME280;10107;51.198;6.824;2023-05-08T02:56:54;-21683.09;;;13.94;100.00
19890;BME280;10107;51.198;6.824;2023-05-08T03:01:01;-21683.63;;;13.96;100.00
19890;BME280;10107;51.198;6.824;2023-05-08T03:05:12;-21682.97;;;13.93;100.00
19890;BME280;10107;51.198;6.824;2023-05-08T03:09:18;-21682.03;;;13.90;100.00
19890;BME280;10107;51.198;6.824;2023-05-08T03:13:24;-21680.59;;;13.84;100.00
19890;BME280;10107;51.198;6.824;2023-05-08T03:17:30;-21679.28;;;13.79;100.00
19890;BME280;10107;51.198;6.824;2023-05-08T03:21:34;-21678.38;;;13.75;100.00
19890;BME280;10107;51.198;6.824;2023-05-08T03:25:38;-21677.56;;;13.72;100.00
19890;BME280;10107;51.198;6.824;2023-05-08T03:29:44;-21676.00;;;13.66;100.00
19890;BME280;10107;51.198;6.824;2023-05-08T03:33:47;-21674.41;;;13.60;100.00
19890;BME280;10107;51.198;6.824;2023-05-08T03:37:49;-21673.22;;;13.55;100.00
19890;BME280;10107;51.198;6.824;2023-05-08T03:41:51;-21671.63;;;13.49;100.00
19890;BME280;10107;51.198;6.824;2023-05-08T03:45:55;-21670.31;;;13.44;100.00
19890;BME280;10107;51.198;6.824;2023-05-08T03:49:59;-21670.19;;;13.43;100.00
19890;BME280;10107;51.198;6.824;2023-05-08T03:54:01;-21670.59;;;13.45;100.00
19890;BME280;10107;51.198;6.824;2023-05-08T03:58:09;-21671.91;;;13.50;100.00
19890;BME280;10107;51.198;6.824;2023-05-08T04:02:21;-21671.91;;;13.50;100.00
19890;BME280;10107;51.198;6.824;2023-05-08T04:06:28;-21672.03;;;13.51;100.00
19890;BME280;10107;51.198;6.824;2023-05-08T04:10:36;-21671.78;;;13.50;100.00
19890;BME280;10107;51.198;6.824;2023-05-08T04:14:44;-21672.56;;;13.53;100.00
19890;BME280;10107;51.198;6.824;2023-05-08T04:18:55;-21672.56;;;13.53;100.00
19890;BME280;10107;51.198;6.824;2023-05-08T04:22:59;-21673.22;;;13.55;100.00
19890;BME280;10107;51.198;6.824;2023-05-08T04:27:03;-21673.34;;;13.56;100.00
19890;BME280;10107;51.198;6.824;2023-05-08T04:31:08;-21673.34;;;13.56;100.00
19890;BME280;10107;51.198;6.824;2023-05-08T04:35:12;-21675.19;;;13.63;100.00
19890;BME280;10107;51.198;6.824;2023-05-08T04:39:15;-21678.09;;;13.74;100.00
19890;BME280;10107;51.198;6.824;2023-05-08T04:43:18;-21681.38;;;13.87;100.00
19890;BME280;10107;51.198;6.824;2023-05-08T04:47:20;-21685.34;;;14.02;100.00
19890;BME280;10107;51.198;6.824;2023-05-08T04:51:24;-21687.44;;;14.11;100.00
19890;BME280;10107;51.198;6.824;2023-05-08T04:55:27;-21690.59;;;14.23;100.00
19890;BME280;10107;51.198;6.824;2023-05-08T04:59:29;-21693.13;;;14.33;100.00
19890;BME280;10107;51.198;6.824;2023-05-08T05:03:32;-21696.13;;;14.44;100.00
19890;BME280;10107;51.198;6.824;2023-05-08T05:07:35;-21698.25;;;14.53;100.00
19890;BME280;10107;51.198;6.824;2023-05-08T05:11:37;-21701.00;;;14.63;100.00
19890;BME280;10107;51.198;6.824;2023-05-08T05:15:40;-21703.50;;;14.73;100.00
19890;BME280;10107;51.198;6.824;2023-05-08T05:19:42;-21705.63;;;14.81;100.00
19890;BME280;10107;51.198;6.824;2023-05-08T05:23:45;-21708.78;;;14.94;100.00
19890;BME280;10107;51.198;6.824;2023-05-08T05:27:47;-21711.41;;;15.04;100.00
19890;BME280;10107;51.198;6.824;2023-05-08T05:31:48;-21711.13;;;15.03;100.00
19890;BME280;10107;51.198;6.824;2023-05-08T05:35:50;-21711.53;;;15.04;100.00
19890;BME280;10107;51.198;6.824;2023-05-08T05:39:53;-21710.88;;;15.02;100.00
19890;BME280;10107;51.198;6.824;2023-05-08T05:43:55;-21710.09;;;14.99;100.00
19890;BME280;10107;51.198;6.824;2023-05-08T05:47:57;-21709.31;;;14.96;100.00
19890;BME280;10107;51.198;6.824;2023-05-08T05:52:00;-21709.81;;;14.98;100.00
19890;BME280;10107;51.198;6.824;2023-05-08T05:56:04;-21712.97;;;15.10;100.00
19890;BME280;10107;51.198;6.824;2023-05-08T06:00:08;-21712.72;;;15.09;100.00
19890;BME280;10107;51.198;6.824;2023-05-08T06:04:21;-21714.28;;;15.15;100.00
19890;BME280;10107;51.198;6.824;2023-05-08T06:08:22;-21716.66;;;15.24;100.00
19890;BME280;10107;51.198;6.824;2023-05-08T06:12:26;-21719.69;;;15.36;100.00
19890;BME280;10107;51.198;6.824;2023-05-08T06:16:28;-21722.44;;;15.47;100.00
19890;BME280;10107;51.198;6.824;2023-05-08T06:20:30;-21721.78;;;15.44;100.00
19890;BME280;10107;51.198;6.824;2023-05-08T06:24:32;-21723.50;;;15.51;100.00
19890;BME280;10107;51.198;6.824;2023-05-08T06:28:36;-21730.59;;;15.79;100.00
19890;BME280;10107;51.198;6.824;2023-05-08T06:32:37;-21738.72;;;16.11;100.00
19890;BME280;10107;51.198;6.824;2023-05-08T06:36:39;-21748.44;;;16.49;100.00
19890;BME280;10107;51.198;6.824;2023-05-08T06:40:41;-21764.19;;;17.10;100.00
19890;BME280;10107;51.198;6.824;2023-05-08T06:44:45;-21845.47;;;20.29;100.00
19890;BME280;10107;51.198;6.824;2023-05-08T06:48:47;-21917.59;;;23.14;95.72
19890;BME280;10107;51.198;6.824;2023-05-08T06:52:48;-21935.88;;;23.86;86.49
19890;BME280;10107;51.198;6.824;2023-05-08T06:56:51;-21954.38;;;24.60;85.58
19890;BME280;10107;51.198;6.824;2023-05-08T07:00:54;-22006.22;;;26.66;76.44
19890;BME280;10107;51.198;6.824;2023-05-08T07:04:56;-22049.94;;;28.40;61.08
19890;BME280;10107;51.198;6.824;2023-05-08T07:08:57;-22073.00;;;29.33;62.55
19890;BME280;10107;51.198;6.824;2023-05-08T07:12:59;-22161.44;;;32.88;44.07
19890;BME280;10107;51.198;6.824;2023-05-08T07:17:03;-22222.28;;;35.35;35.51
19890;BME280;10107;51.198;6.824;2023-05-08T07:21:06;-22213.19;;;34.98;34.47
19890;BME280;10107;51.198;6.824;2023-05-08T07:25:09;-22228.34;;;35.59;32.89
19890;BME280;10107;51.198;6.824;2023-05-08T07:29:10;-22261.78;;;36.95;30.30
19890;BME280;10107;51.198;6.824;2023-05-08T07:33:13;-22190.13;;;34.04;33.84
19890;BME280;10107;51.198;6.824;2023-05-08T07:37:15;-22170.06;;;33.23;35.32
19890;BME280;10107;51.198;6.824;2023-05-08T07:41:17;-22243.38;;;36.20;31.09
19890;BME280;10107;51.198;6.824;2023-05-08T07:45:18;-22229.88;;;35.65;30.15
19890;BME280;10107;51.198;6.824;2023-05-08T07:49:21;-22090.53;;;30.03;40.79
19890;BME280;10107;51.198;6.824;2023-05-08T07:53:23;-22001.97;;;26.49;50.36
19890;BME280;10107;51.198;6.824;2023-05-08T07:57:24;-21959.78;;;24.81;57.80
19890;BME280;10107;51.198;6.824;2023-05-08T08:01:26;-21926.16;;;23.48;64.32
19890;BME280;10107;51.198;6.824;2023-05-08T08:05:29;-21906.06;;;22.68;70.25
19890;BME280;10107;51.198;6.824;2023-05-08T08:09:30;-21896.97;;;22.32;73.61
19890;BME280;10107;51.198;6.824;2023-05-08T08:13:32;-21886.56;;;21.91;74.81
19890;BME280;10107;51.198;6.824;2023-05-08T08:17:34;-21894.75;;;22.24;75.52
19890;BME280;10107;51.198;6.824;2023-05-08T08:21:40;-21896.44;;;22.30;76.05
19890;BME280;10107;51.198;6.824;2023-05-08T08:25:42;-21894.13;;;22.21;72.58
19890;BME280;10107;51.198;6.824;2023-05-08T08:29:44;-21878.78;;;21.61;77.88
19890;BME280;10107;51.198;6.824;2023-05-08T08:33:45;-21873.44;;;21.40;79.76
19890;BME280;10107;51.198;6.824;2023-05-08T08:37:48;-21875.16;;;21.46;82.24
19890;BME280;10107;51.198;6.824;2023-05-08T08:41:50;-21884.09;;;21.82;80.31
19890;BME280;10107;51.198;6.824;2023-05-08T08:45:52;-21881.13;;;21.70;81.11
19890;BME280;10107;51.198;6.824;2023-05-08T08:49:54;-21880.59;;;21.68;80.71
19890;BME280;10107;51.198;6.824;2023-05-08T08:54:03;-21877.34;;;21.55;80.90
19890;BME280;10107;51.198;6.824;2023-05-08T08:58:13;-21877.09;;;21.54;80.08
19890;BME280;10107;51.198;6.824;2023-05-08T09:02:20;-21874.63;;;21.44;81.19
19890;BME280;10107;51.198;6.824;2023-05-08T09:06:22;-21883.72;;;21.80;80.32
19890;BME280;10107;51.198;6.824;2023-05-08T09:10:25;-21890.22;;;22.06;76.98
19890;BME280;10107;51.198;6.824;2023-05-08T09:14:27;-21888.78;;;22.00;79.33
19890;BME280;10107;51.198;6.824;2023-05-08T09:18:29;-21892.69;;;22.15;77.42
19890;BME280;10107;51.198;6.824;2023-05-08T09:22:31;-21898.78;;;22.40;76.31
19890;BME280;10107;51.198;6.824;2023-05-08T09:26:35;-21897.88;;;22.36;74.34
19890;BME280;10107;51.198;6.824;2023-05-08T09:30:48;-21898.00;;;22.37;76.31
19890;BME280;10107;51.198;6.824;2023-05-08T09:34:51;-21897.09;;;22.33;74.80
19890;BME280;10107;51.198;6.824;2023-05-08T09:38:53;-21891.50;;;22.11;74.98
19890;BME280;10107;51.198;6.824;2023-05-08T09:42:56;-21888.53;;;21.99;75.40
19890;BME280;10107;51.198;6.824;2023-05-08T09:47:13;-21892.16;;;22.13;76.76
19890;BME280;10107;51.198;6.824;2023-05-08T09:51:15;-21891.25;;;22.10;75.57
19890;BME280;10107;51.198;6.824;2023-05-08T09:55:17;-21897.50;;;22.34;75.46
19890;BME280;10107;51.198;6.824;2023-05-08T09:59:25;-21907.47;;;22.74;71.90
19890;BME280;10107;51.198;6.824;2023-05-08T10:03:44;-21916.56;;;23.10;70.32
19890;BME280;10107;51.198;6.824;2023-05-08T10:07:47;-21924.84;;;23.43;68.26
19890;BME280;10107;51.198;6.824;2023-05-08T10:11:50;-21940.13;;;24.03;64.52
19890;BME280;10107;51.198;6.824;2023-05-08T10:15:53;-22005.59;;;26.63;57.05
19890;BME280;10107;51.198;6.824;2023-05-08T10:19:58;-22037.34;;;27.90;52.37
19890;BME280;10107;51.198;6.824;2023-05-08T10:24:04;-22034.91;;;27.80;48.50
19890;BME280;10107;51.198;6.824;2023-05-08T10:28:09;-22021.81;;;27.28;49.08
19890;BME280;10107;51.198;6.824;2023-05-08T10:32:18;-21999.16;;;26.38;50.96
19890;BME280;10107;51.198;6.824;2023-05-08T10:36:20;-21988.72;;;25.96;52.84
19890;BME280;10107;51.198;6.824;2023-05-08T10:40:22;-21984.72;;;25.80;53.33
19890;BME280;10107;51.198;6.824;2023-05-08T10:44:25;-21976.97;;;25.49;54.81
19890;BME280;10107;51.198;6.824;2023-05-08T10:48:32;-21974.00;;;25.38;54.26
19890;BME280;10107;51.198;6.824;2023-05-08T10:52:42;-21967.16;;;25.10;56.32
19890;BME280;10107;51.198;6.824;2023-05-08T10:56:47;-21976.19;;;25.46;54.34
19890;BME280;10107;51.198;6.824;2023-05-08T11:01:16;-21989.88;;;26.01;53.83
19890;BME280;10107;51.198;6.824;2023-05-08T11:05:19;-21989.59;;;26.00;51.73
19890;BME280;10107;51.198;6.824;2023-05-08T11:09:22;-21982.66;;;25.72;53.25
19890;BME280;10107;51.198;6.824;2023-05-08T11:13:28;-21977.22;;;25.51;55.05
19890;BME280;10107;51.198;6.824;2023-05-08T11:17:31;-21968.69;;;25.17;53.73
19890;BME280;10107;51.198;6.824;2023-05-08T11:21:34;-21974.25;;;25.39;52.89
19890;BME280;10107;51.198;6.824;2023-05-08T11:25:43;-21978.25;;;25.55;53.68
19890;BME280;10107;51.198;6.824;2023-05-08T11:30:17;-21972.06;;;25.30;52.67
19890;BME280;10107;51.198;6.824;2023-05-08T11:34:44;-22045.94;;;28.24;45.94
19890;BME280;10107;51.198;6.824;2023-05-08T11:39:05;-22061.47;;;28.87;43.30
19890;BME280;10107;51.198;6.824;2023-05-08T11:43:18;-22038.00;;;27.93;45.67
19890;BME280;10107;51.198;6.824;2023-05-08T11:47:21;-22015.88;;;27.04;47.54
19890;BME280;10107;51.198;6.824;2023-05-08T11:51:29;-21987.03;;;25.89;50.14
19890;BME280;10107;51.198;6.824;2023-05-08T11:55:33;-21979.81;;;25.61;52.27
19890;BME280;10107;51.198;6.824;2023-05-08T11:59:34;-21979.03;;;25.58;52.88
19890;BME280;10107;51.198;6.824;2023-05-08T12:03:37;-21978.53;;;25.56;53.28
19890;BME280;10107;51.198;6.824;2023-05-08T12:07:41;-21979.94;;;25.61;53.36
19890;BME280;10107;51.198;6.824;2023-05-08T12:11:45;-21987.94;;;25.93;54.36
19890;BME280;10107;51.198;6.824;2023-05-08T12:15:49;-21985.88;;;25.85;53.83
19890;BME280;10107;51.198;6.824;2023-05-08T12:19:53;-21975.69;;;25.44;56.18
19890;BME280;10107;51.198;6.824;2023-05-08T12:23:56;-21961.34;;;24.87;57.97
19890;BME280;10107;51.198;6.824;2023-05-08T12:27:59;-21953.47;;;24.56;59.83
19890;BME280;10107;51.198;6.824;2023-05-08T12:32:01;-21941.69;;;24.09;58.52
19890;BME280;10107;51.198;6.824;2023-05-08T12:36:03;-21928.34;;;23.57;61.10
19890;BME280;10107;51.198;6.824;2023-05-08T12:40:07;-21927.31;;;23.52;61.98
19890;BME280;10107;51.198;6.824;2023-05-08T12:44:21;-21923.94;;;23.39;63.94
19890;BME280;10107;51.198;6.824;2023-05-08T12:48:23;-21928.75;;;23.58;62.69
19890;BME280;10107;51.198;6.824;2023-05-08T12:52:26;-21927.19;;;23.52;64.79
19890;BME280;10107;51.198;6.824;2023-05-08T12:56:28;-21929.53;;;23.61;63.05
19890;BME280;10107;51.198;6.824;2023-05-08T13:00:35;-21926.94;;;23.51;63.96
19890;BME280;10107;51.198;6.824;2023-05-08T13:04:37;-21926.16;;;23.48;64.51
19890;BME280;10107;51.198;6.824;2023-05-08T13:08:39;-21924.34;;;23.41;64.84
19890;BME280;10107;51.198;6.824;2023-05-08T13:12:41;-21914.75;;;23.03;66.18
19890;BME280;10107;51.198;6.824;2023-05-08T13:16:44;-21928.09;;;23.56;63.20
19890;BME280;10107;51.198;6.824;2023-05-08T13:20:47;-21932.09;;;23.71;63.52
19890;BME280;10107;51.198;6.824;2023-05-08T13:24:48;-21935.34;;;23.84;63.37
19890;BME280;10107;51.198;6.824;2023-05-08T13:28:50;-21935.59;;;23.85;64.06
19890;BME280;10107;51.198;6.824;2023-05-08T13:32:53;-21943.38;;;24.16;63.81
19890;BME280;10107;51.198;6.824;2023-05-08T13:36:54;-21937.94;;;23.95;64.39
19890;BME280;10107;51.198;6.824;2023-05-08T13:40:56;-21941.31;;;24.08;62.73
19890;BME280;10107;51.198;6.824;2023-05-08T13:44:58;-21930.81;;;23.66;65.06
19890;BME280;10107;51.198;6.824;2023-05-08T13:49:01;-21931.19;;;23.68;63.85
19890;BME280;10107;51.198;6.824;2023-05-08T13:53:02;-21933.16;;;23.76;64.14
19890;BME280;10107;51.198;6.824;2023-05-08T13:57:05;-21949.06;;;24.39;64.46
19890;BME280;10107;51.198;6.824;2023-05-08T14:01:07;-21956.03;;;24.66;61.49
19890;BME280;10107;51.198;6.824;2023-05-08T14:05:10;-21973.09;;;25.34;59.83
19890;BME280;10107;51.198;6.824;2023-05-08T14:09:11;-21964.31;;;24.99;57.11
19890;BME280;10107;51.198;6.824;2023-05-08T14:13:13;-21958.38;;;24.76;58.91
19890;BME280;10107;51.198;6.824;2023-05-08T14:17:15;-21961.72;;;24.89;58.29
19890;BME280;10107;51.198;6.824;2023-05-08T14:21:18;-21959.53;;;24.80;58.12
19890;BME280;10107;51.198;6.824;2023-05-08T14:25:19;-21961.72;;;24.89;58.36
19890;BME280;10107;51.198;6.824;2023-05-08T14:29:21;-21963.66;;;24.97;57.34
19890;BME280;10107;51.198;6.824;2023-05-08T14:33:22;-21961.09;;;24.86;56.20
19890;BME280;10107;51.198;6.824;2023-05-08T14:37:26;-21955.78;;;24.65;57.70
19890;BME280;10107;51.198;6.824;2023-05-08T14:41:28;-21939.88;;;24.02;60.57
19890;BME280;10107;51.198;6.824;2023-05-08T14:45:30;-21936.50;;;23.89;62.19
19890;BME280;10107;51.198;6.824;2023-05-08T14:49:31;-21953.97;;;24.58;59.70
19890;BME280;10107;51.198;6.824;2023-05-08T14:53:34;-21947.25;;;24.31;59.50
19890;BME280;10107;51.198;6.824;2023-05-08T14:57:36;-21926.78;;;23.50;61.93
19890;BME280;10107;51.198;6.824;2023-05-08T15:01:37;-21912.81;;;22.95;66.60
19890;BME280;10107;51.198;6.824;2023-05-08T15:05:42;-21893.06;;;22.17;67.84
19890;BME280;10107;51.198;6.824;2023-05-08T15:09:45;-21883.22;;;21.78;71.75
19890;BME280;10107;51.198;6.824;2023-05-08T15:13:47;-21886.84;;;21.92;72.37
19890;BME280;10107;51.198;6.824;2023-05-08T15:17:48;-21882.69;;;21.76;73.21
19890;BME280;10107;51.198;6.824;2023-05-08T15:21:50;-21876.44;;;21.51;75.28
19890;BME280;10107;51.198;6.824;2023-05-08T15:25:53;-21882.41;;;21.75;74.86
19890;BME280;10107;51.198;6.824;2023-05-08T15:29:55;-21884.50;;;21.83;73.74
19890;BME280;10107;51.198;6.824;2023-05-08T15:33:56;-21888.00;;;21.97;73.81
19890;BME280;10107;51.198;6.824;2023-05-08T15:37:58;-21886.44;;;21.91;73.23
19890;BME280;10107;51.198;6.824;2023-05-08T15:42:05;-21886.56;;;21.91;73.23
19890;BME280;10107;51.198;6.824;2023-05-08T15:46:06;-21882.94;;;21.77;75.43
19890;BME280;10107;51.198;6.824;2023-05-08T15:50:09;-21884.38;;;21.83;75.49
19890;BME280;10107;51.198;6.824;2023-05-08T15:54:10;-21880.75;;;21.68;76.85
19890;BME280;10107;51.198;6.824;2023-05-08T15:58:13;-21879.31;;;21.63;78.26
19890;BME280;10107;51.198;6.824;2023-05-08T16:02:15;-21868.00;;;21.18;78.02
19890;BME280;10107;51.198;6.824;2023-05-08T16:06:16;-21863.97;;;21.02;80.33
19890;BME280;10107;51.198;6.824;2023-05-08T16:10:18;-21857.72;;;20.77;84.26
19890;BME280;10107;51.198;6.824;2023-05-08T16:14:21;-21853.53;;;20.61;85.28
19890;BME280;10107;51.198;6.824;2023-05-08T16:18:23;-21853.41;;;20.61;87.05
19890;BME280;10107;51.198;6.824;2023-05-08T16:22:24;-21853.41;;;20.61;87.89
19890;BME280;10107;51.198;6.824;2023-05-08T16:26:26;-21848.84;;;20.43;89.21
19890;BME280;10107;51.198;6.824;2023-05-08T16:30:29;-21845.19;;;20.28;91.00
19890;BME280;10107;51.198;6.824;2023-05-08T16:34:31;-21846.13;;;20.32;91.11
19890;BME280;10107;51.198;6.824;2023-05-08T16:38:34;-21846.13;;;20.32;92.08
19890;BME280;10107;51.198;6.824;2023-05-08T16:42:36;-21847.41;;;20.37;92.32
19890;BME280;10107;51.198;6.824;2023-05-08T16:46:39;-21850.41;;;20.49;93.30
19890;BME280;10107;51.198;6.824;2023-05-08T16:50:40;-21851.19;;;20.52;92.16
19890;BME280;10107;51.198;6.824;2023-05-08T16:54:42;-21853.16;;;20.60;91.99
19890;BME280;10107;51.198;6.824;2023-05-08T16:58:44;-21853.53;;;20.61;93.00
19890;BME280;10107;51.198;6.824;2023-05-08T17:02:46;-21851.84;;;20.54;91.13
19890;BME280;10107;51.198;6.824;2023-05-08T17:06:48;-21848.06;;;20.40;90.84
19890;BME280;10107;51.198;6.824;2023-05-08T17:10:50;-21845.72;;;20.30;90.76
19890;BME280;10107;51.198;6.824;2023-05-08T17:14:53;-21845.34;;;20.29;90.63
19890;BME280;10107;51.198;6.824;2023-05-08T17:18:57;-21842.84;;;20.19;90.22
19890;BME280;10107;51.198;6.824;2023-05-08T17:23:00;-21842.06;;;20.16;91.08
19890;BME280;10107;51.198;6.824;2023-05-08T17:27:01;-21837.91;;;20.00;90.86
19890;BME280;10107;51.198;6.824;2023-05-08T17:31:03;-21835.81;;;19.91;92.36
19890;BME280;10107;51.198;6.824;2023-05-08T17:35:07;-21835.56;;;19.90;92.15
19890;BME280;10107;51.198;6.824;2023-05-08T17:39:09;-21836.47;;;19.94;93.15
19890;BME280;10107;51.198;6.824;2023-05-08T17:43:10;-21836.06;;;19.92;92.44
19890;BME280;10107;51.198;6.824;2023-05-08T17:47:12;-21832.69;;;19.79;92.14
19890;BME280;10107;51.198;6.824;2023-05-08T17:51:16;-21830.34;;;19.70;93.74
19890;BME280;10107;51.198;6.824;2023-05-08T17:55:17;-21828.91;;;19.64;94.41
19890;BME280;10107;51.198;6.824;2023-05-08T17:59:19;-21827.47;;;19.58;94.87
19890;BME280;10107;51.198;6.824;2023-05-08T18:03:20;-21825.91;;;19.52;95.42
19890;BME280;10107;51.198;6.824;2023-05-08T18:07:23;-21825.00;;;19.49;96.78
19890;BME280;10107;51.198;6.824;2023-05-08T18:11:25;-21824.72;;;19.48;96.82
19890;BME280;10107;51.198;6.824;2023-05-08T18:15:28;-21822.91;;;19.41;97.68
19890;BME280;10107;51.198;6.824;2023-05-08T18:19:29;-21820.81;;;19.32;98.82
19890;BME280;10107;51.198;6.824;2023-05-08T18:23:32;-21818.97;;;19.25;99.79
19890;BME280;10107;51.198;6.824;2023-05-08T18:27:34;-21818.34;;;19.23;100.00
19890;BME280;10107;51.198;6.824;2023-05-08T18:31:35;-21814.28;;;19.07;100.00
19890;BME280;10107;51.198;6.824;2023-05-08T18:35:37;-21811.66;;;18.96;100.00
19890;BME280;10107;51.198;6.824;2023-05-08T18:39:40;-21808.41;;;18.84;100.00
19890;BME280;10107;51.198;6.824;2023-05-08T18:43:41;-21804.63;;;18.69;100.00
19890;BME280;10107;51.198;6.824;2023-05-08T18:47:44;-21801.22;;;18.55;100.00
19890;BME280;10107;51.198;6.824;2023-05-08T18:51:45;-21797.94;;;18.43;100.00
19890;BME280;10107;51.198;6.824;2023-05-08T18:55:48;-21794.41;;;18.29;100.00
19890;BME280;10107;51.198;6.824;2023-05-08T18:59:50;-21791.28;;;18.16;100.00
19890;BME280;10107;51.198;6.824;2023-05-08T19:03:52;-21788.28;;;18.05;100.00
19890;BME280;10107;51.198;6.824;2023-05-08T19:07:53;-21784.88;;;17.91;100.00
19890;BME280;10107;51.198;6.824;2023-05-08T19:11:56;-21782.50;;;17.82;100.00
19890;BME280;10107;51.198;6.824;2023-05-08T19:15:58;-21779.91;;;17.72;100.00
19890;BME280;10107;51.198;6.824;2023-05-08T19:20:00;-21776.88;;;17.60;100.00
19890;BME280;10107;51.198;6.824;2023-05-08T19:24:01;-21774.53;;;17.51;100.00
19890;BME280;10107;51.198;6.824;2023-05-08T19:28:05;-21772.16;;;17.41;100.00
19890;BME280;10107;51.198;6.824;2023-05-08T19:32:06;-21770.06;;;17.33;100.00
19890;BME280;10107;51.198;6.824;2023-05-08T19:36:08;-21767.31;;;17.22;100.00
19890;BME280;10107;51.198;6.824;2023-05-08T19:40:12;-21764.97;;;17.13;100.00
19890;BME280;10107;51.198;6.824;2023-05-08T19:44:16;-21763.53;;;17.08;100.00
19890;BME280;10107;51.198;6.824;2023-05-08T19:48:18;-21762.34;;;17.03;100.00
19890;BME280;10107;51.198;6.824;2023-05-08T19:52:20;-21761.81;;;17.01;100.00
19890;BME280;10107;51.198;6.824;2023-05-08T19:56:21;-21760.78;;;16.97;100.00
19890;BME280;10107;51.198;6.824;2023-05-08T20:00:24;-21759.72;;;16.93;100.00
19890;BME280;10107;51.198;6.824;2023-05-08T20:04:26;-21759.06;;;16.90;100.00
19890;BME280;10107;51.198;6.824;2023-05-08T20:08:28;-21759.19;;;16.91;100.00
19890;BME280;10107;51.198;6.824;2023-05-08T20:12:29;-21758.69;;;16.89;100.00
19890;BME280;10107;51.198;6.824;2023-05-08T20:16:32;-21758.28;;;16.87;100.00
19890;BME280;10107;51.198;6.824;2023-05-08T20:20:34;-21756.84;;;16.81;100.00
19890;BME280;10107;51.198;6.824;2023-05-08T20:24:35;-21756.06;;;16.78;100.00
19890;BME280;10107;51.198;6.824;2023-05-08T20:28:37;-21755.91;;;16.78;100.00
19890;BME280;10107;51.198;6.824;2023-05-08T20:32:40;-21755.00;;;16.74;100.00
19890;BME280;10107;51.198;6.824;2023-05-08T20:36:42;-21754.47;;;16.72;100.00
19890;BME280;10107;51.198;6.824;2023-05-08T20:40:44;-21754.22;;;16.71;100.00
19890;BME280;10107;51.198;6.824;2023-05-08T20:44:46;-21754.22;;;16.71;100.00
19890;BME280;10107;51.198;6.824;2023-05-08T20:48:49;-21753.94;;;16.70;100.00
19890;BME280;10107;51.198;6.824;2023-05-08T20:52:51;-21753.28;;;16.68;100.00
19890;BME280;10107;51.198;6.824;2023-05-08T20:56:52;-21752.63;;;16.65;100.00
19890;BME280;10107;51.198;6.824;2023-05-08T21:00:54;-21751.97;;;16.62;100.00
19890;BME280;10107;51.198;6.824;2023-05-08T21:04:57;-21750.66;;;16.57;100.00